• Join FlightAware (Why Join?)
  • Login
  • US Flag 
01:23AM EDT


 

Airport Tracker/Info


-or-


 

Live Flight TrackerFlight Track Log ✈ ACA831 ✈ 24-Jun-2013 ✈ LSGG / GVA - CYUL

Flight Track Log - Related Links

Times and Time Zones

All times are in EDT time to prevent confusion due to time zone crossing. See the ACA831 flight status page for this flight to view local times or setup timezone preferences in your user account.

Time Position Orientation Groundspeed Altitude Reporting Facility
EDT Latitude Longitude Course Direction KTS MPH feet Rate Location/Type
06:24AM 46.2330 6.1060 272° West 5 6  Level FlightAware
06:24AM 46.2330 6.1050 270° West 5 6 180 Level FlightAware
06:25AM 46.2330 6.1040 270° West 5 6 180 Level FlightAware
06:26AM 46.2320 6.1030 215° Southwest 6 7 180 Level FlightAware
06:26AM 46.2310 6.1030 180° South 3 3 240 Level FlightAware
06:27AM 46.2310 6.1010 270° West 4 5 240 Level FlightAware
06:27AM 46.2300 6.1000 215° Southwest 9 10 240 Level FlightAware
06:28AM 46.2290 6.1000 180° South 9 10 300 Level FlightAware
06:28AM 46.2280 6.0970 244° Southwest 11 13 300 Level FlightAware
06:29AM 46.2270 6.0960 215° Southwest 13 15 300 Level FlightAware
06:29AM 46.2260 6.0950 215° Southwest 5 6 360 Level FlightAware
06:30AM 46.2260 6.0940 270° West 7 8 360 Level FlightAware
06:30AM 46.2260 6.0930 270° West 2 2 420 Level FlightAware
06:31AM 46.2250 6.0930 180° South 1 1 420 Level FlightAware
06:33AM 46.2250 6.0920 270° West 4 5 540 Level FlightAware
06:33AM 46.2260 6.0920 360° North 6 7 1,080 Level FlightAware
06:34AM 46.2270 6.0930 35° Northeast 31 36 1,380 Level FlightAware
06:34AM 46.2290 6.0960 46° Northeast 84 97 2,100 Level FlightAware
06:34AM 46.2420 6.1140 44° Northeast 2,760 Level FlightAware
06:35AM 46.2580 6.1370 45° Northeast 182 209 2,300 3,900 Climbing FlightAware
06:35AM 46.2760 6.1650 47° Northeast 196 226 3,600 2,460 Climbing FlightAware
06:36AM 46.2960 6.1950 46° Northeast 209 241 4,800 1,920 Climbing FlightAware
06:36AM 46.3140 6.2230 47° Northeast 237 273 5,400 1,740 Climbing FlightAware
06:37AM 46.3350 6.2540 46° Northeast 258 297 6,400 2,760 Climbing FlightAware
06:37AM 46.3640 6.2970 46° Northeast 265 305 8,200 3,240 Climbing FlightAware
06:38AM 46.3890 6.3240 37° Northeast 270 311 9,400 2,700 Climbing FlightAware
06:38AM 46.4050 6.3270 North 273 314 10,000 1,800 Climbing FlightAware
06:39AM 46.4600 6.3210 356° North 305 351 11,100 1,440 Climbing FlightAware
06:39AM 46.5020 6.2840 329° Northwest 349 402 11,700 1,440 Climbing FlightAware
06:40AM 46.5410 6.1930 302° West 382 440 12,900 2,220 Climbing FlightAware
06:40AM 46.5750 6.1070 300° West 386 444 14,700 2,580 Climbing FlightAware
06:41AM 46.6150 6.0080 300° West 392 451 16,400 1,920 Climbing FlightAware
06:42AM 46.6530 5.9150 301° West 408 470 17,700 1,920 Climbing FlightAware
06:43AM 46.6930 5.8180 301° West 416 479 19,100 2,100 Climbing FlightAware
06:44AM 46.7560 5.6960 307° West 415 478 21,100 2,040 Climbing FlightAware
06:44AM 46.8170 5.6230 321° Northwest 416 479 22,400 1,920 Climbing FlightAware
06:45AM 46.8830 5.5440 321° Northwest 419 482 23,800 1,680 Climbing FlightAware
06:46AM 46.9450 5.4700 321° Northwest 425 489 24,900 1,500 Climbing FlightAware
06:46AM 47.0070 5.3970 321° Northwest 430 495 25,900 1,440 Climbing FlightAware
06:47AM 47.0720 5.3170 320° Northwest 435 501 26,900 2,040 Climbing FlightAware
06:48AM 47.1370 5.2350 319° Northwest 417 480 28,900 2,580 Climbing FlightAware
06:48AM 47.1940 5.1640 320° Northwest 395 455 30,600 1,740 Climbing FlightAware
06:49AM 47.2680 5.0710 320° Northwest 396 456 31,600 840 Climbing FlightAware
06:50AM 47.3470 4.9730 320° Northwest 414 476 32,000 240 Climbing FlightAware
06:51AM 47.3980 4.9090 320° Northwest 418 481 32,000  Level FlightAware
06:51AM 47.4610 4.8290 319° Northwest 411 473 32,000  Level FlightAware
06:52AM 47.5220 4.7520 320° Northwest 411 473 32,000  Level FlightAware
06:53AM 47.5880 4.6690 320° Northwest 409 471 32,000  Level FlightAware
06:54AM 47.6480 4.5920 319° Northwest 409 471 32,000  Level FlightAware
06:54AM 47.7030 4.5210 319° Northwest 408 470 32,000  Level FlightAware
06:55AM 47.7690 4.4370 319° Northwest 407 468 32,000  Level FlightAware
06:56AM 47.8220 4.3680 319° Northwest 406 467 32,000  Level FlightAware
06:56AM 47.8910 4.2790 319° Northwest 406 467 32,000  Level FlightAware
06:57AM 47.9460 4.2090 320° Northwest 405 466 32,000  Level FlightAware
06:58AM 48.0090 4.1260 319° Northwest 406 467 32,000  Level FlightAware
06:58AM 48.0660 4.0510 319° Northwest 406 467 32,000  Level FlightAware
06:59AM 48.1220 3.9790 319° Northwest 406 467 32,000  Level FlightAware
07:00AM 48.1810 3.9020 319° Northwest 405 466 32,000  Level FlightAware
07:01AM 48.2390 3.8250 319° Northwest 404 465 32,000  Level FlightAware
07:01AM 48.2960 3.7500 319° Northwest 403 464 32,000  Level FlightAware
07:02AM 48.3530 3.6740 318° Northwest 396 456 32,000  Level FlightAware
07:03AM 48.4170 3.5900 319° Northwest 397 457 32,000  Level FlightAware
07:03AM 48.4730 3.5150 318° Northwest 397 457 32,000  Level FlightAware
07:04AM 48.5350 3.4320 318° Northwest 396 456 32,000  Level FlightAware
07:05AM 48.5920 3.3560 319° Northwest 394 453 32,000  Level FlightAware
07:05AM 48.6470 3.2840 319° Northwest 400 460 32,000  Level FlightAware
07:06AM 48.7120 3.2250 329° Northwest 394 453 32,000  Level FlightAware
07:07AM 48.7810 3.1770 335° Northwest 394 453 32,000  Level FlightAware
07:08AM 48.8590 3.1230 336° Northwest 395 455 32,000  Level FlightAware
07:08AM 48.9260 3.0760 335° Northwest 395 455 32,000  Level FlightAware
07:09AM 49.0020 3.0220 335° Northwest 395 455 32,000  Level FlightAware
07:10AM 49.0700 2.9740 335° Northwest 394 453 32,000  Level FlightAware
07:10AM 49.1430 2.9230 335° Northwest 394 453 32,000  Level FlightAware
07:11AM 49.2140 2.8720 335° Northwest 394 453 32,000  Level FlightAware
07:12AM 49.2780 2.8270 335° Northwest 400 460 32,000  Level FlightAware
07:12AM 49.3480 2.7760 335° Northwest 400 460 32,000  Level FlightAware
07:13AM 49.3614 2.7662 335° Northwest 1 1 32,000  Level FlightAware UK
07:13AM 49.4230 2.7230 335° Northwest 401 461 32,000  Level FlightAware
07:14AM 49.5000 2.6680 335° Northwest 403 464 32,000  Level FlightAware
07:15AM 49.5750 2.6130 335° Northwest 403 464 32,000  Level FlightAware
07:15AM 49.6400 2.5670 335° Northwest 406 467 32,000  Level FlightAware
07:16AM 49.7120 2.5140 335° Northwest 409 471 32,000  Level FlightAware
07:17AM 49.7860 2.4600 335° Northwest 409 471 32,000  Level FlightAware
07:17AM 49.8560 2.4090 335° Northwest 410 472 32,000  Level FlightAware
07:18AM 49.9220 2.3610 335° Northwest 411 473 32,000  Level FlightAware
07:19AM 49.9920 2.3090 334° Northwest 412 474 32,000  Level FlightAware
07:20AM 50.0780 2.2450 334° Northwest 413 475 32,000  Level FlightAware
07:20AM 50.1460 2.1950 335° Northwest 414 476 32,000  Level FlightAware
07:21AM 50.1994 2.1558 335° Northwest 474 545 32,000  Level FlightAware UK
07:21AM 50.2190 2.1410 335° Northwest 416 479 32,000  Level FlightAware
07:21AM 50.2726 2.1016 335° Northwest 474 545 32,000  Level FlightAware UK
07:22AM 50.2950 2.0840 335° Northwest 416 479 32,000  Level FlightAware
07:22AM 50.3580 2.0350 334° Northwest 414 476 32,000  Level FlightAware
07:23AM 50.4190 1.9570 321° Northwest 412 474 32,000  Level FlightAware
07:24AM 50.4780 1.8690 317° Northwest 412 474 32,000  Level FlightAware
07:24AM 50.5350 1.7890 317° Northwest 414 476 32,000 -180 Level FlightAware
07:24AM 50.5448 1.7807 317° Northwest 474 545 31,900 -180 Descending FlightAware UK
07:25AM 50.6033 1.7245 317° Northwest 470 541 31,900 120 Level FlightAware UK
07:25AM 50.6100 1.7170 317° Northwest 414 476 32,000 120 Climbing FlightAware
07:26AM 50.6721 1.6573 317° Northwest 470 541 32,000  Level FlightAware UK
07:26AM 50.6700 1.6590 317° Northwest 414 476 32,000  Level FlightAware
07:26AM 50.7404 1.5901 317° Northwest 470 541 32,000  Level FlightAware UK
07:27AM 50.7660 1.5640 317° Northwest 415 478 32,000  Level FlightAware
07:27AM 50.7962 1.5340 328° Northwest 416 479 32,000  Level FlightAware ADS-B
07:28AM 50.8640 1.4571 328° Northwest 470 541 32,000  Level FlightAware UK
07:28AM 50.8761 1.4409 328° Northwest 415 478 32,000  Level FlightAware ADS-B
07:28AM 50.9296 1.3721 321° Northwest 416 479 32,000  Level FlightAware ADS-B
07:29AM 50.9829 1.3023 321° Northwest 416 479 32,000  Level FlightAware ADS-B
07:30AM 51.0559 1.2057 320° Northwest 417 480 32,000  Level FlightAware ADS-B
07:31AM 51.1129 1.1303 320° Northwest 419 482 32,000  Level FlightAware ADS-B
07:31AM 51.1680 1.0574 320° Northwest 420 483 32,000 120 Level FlightAware ADS-B
07:32AM 51.2136 0.9968 320° Northwest 422 486 32,200 1,020 Climbing FlightAware ADS-B
07:32AM 51.2641 0.9297 320° Northwest 417 480 33,100 1,260 Climbing FlightAware ADS-B
07:33AM 51.3111 0.8669 320° Northwest 418 481 33,600 840 Climbing FlightAware ADS-B
07:33AM 51.3559 0.8068 320° Northwest 419 482 34,000 360 Climbing FlightAware ADS-B
07:34AM 51.4010 0.7463 320° Northwest 420 483 34,000  Level FlightAware ADS-B
07:34AM 51.4457 0.6860 320° Northwest 422 486 34,000  Level FlightAware ADS-B
07:35AM 51.4904 0.6256 320° Northwest 422 486 34,000  Level FlightAware ADS-B
07:35AM 51.5355 0.5648 320° Northwest 421 484 34,000  Level FlightAware ADS-B
07:36AM 51.5839 0.4990 320° Northwest 419 482 34,000  Level FlightAware ADS-B
07:36AM 51.6280 0.4388 320° Northwest 418 481 34,000  Level FlightAware ADS-B
07:37AM 51.6726 0.3782 320° Northwest 418 481 34,000  Level FlightAware ADS-B
07:37AM 51.7178 0.3164 320° Northwest 418 481 34,000  Level FlightAware ADS-B
07:38AM 51.7635 0.2533 319° Northwest 418 481 34,000  Level FlightAware ADS-B
07:38AM 51.8086 0.1919 320° Northwest 418 481 34,000  Level FlightAware ADS-B
07:39AM 51.8532 0.1298 319° Northwest 418 481 34,000  Level FlightAware ADS-B
07:39AM 51.9003 0.0645 319° Northwest 417 480 34,000  Level FlightAware ADS-B
07:40AM 51.9480 -0.0011 320° Northwest 418 481 34,000  Level FlightAware ADS-B
07:41AM 51.9995 -0.0702 320° Northwest 417 480 34,000  Level FlightAware ADS-B
07:41AM 52.0483 -0.1261 325° Northwest 417 480 34,000  Level FlightAware ADS-B
07:42AM 52.0994 -0.1846 325° Northwest 419 482 34,000  Level FlightAware ADS-B
07:42AM 52.1474 -0.2390 325° Northwest 419 482 34,000  Level FlightAware ADS-B
07:43AM 52.1968 -0.2959 325° Northwest 418 481 34,000  Level FlightAware ADS-B
07:43AM 52.2445 -0.3503 325° Northwest 418 481 34,000  Level FlightAware ADS-B
07:44AM 52.2921 -0.4045 325° Northwest 417 480 34,000  Level FlightAware ADS-B
07:44AM 52.3407 -0.4601 325° Northwest 416 479 34,000  Level FlightAware ADS-B
07:45AM 52.3796 -0.5044 325° Northwest 415 478 34,000  Level FlightAware ADS-B
07:45AM 52.3995 -0.5307 321° Northwest 414 476 34,000  Level FlightAware ADS-B
07:45AM 52.4434 -0.5929 319° Northwest 414 476 34,000  Level FlightAware ADS-B
07:46AM 52.5009 -0.6724 320° Northwest 415 478 34,000  Level FlightAware ADS-B
07:46AM 52.5462 -0.7339 320° Northwest 415 478 34,000  Level FlightAware ADS-B
07:47AM 52.5913 -0.7945 321° Northwest 416 479 34,000  Level FlightAware ADS-B
07:47AM 52.6361 -0.8547 321° Northwest 416 479 34,000  Level FlightAware ADS-B
07:48AM 52.6849 -0.9206 321° Northwest 415 478 34,000 -120 Level FlightAware ADS-B
07:49AM 52.7478 -1.0060 321° Northwest 460 529 33,900  Descending FlightAware UK
07:49AM 52.7500 -1.0100 321° Northwest 416 479 34,000 120 Climbing FlightAware
07:49AM 52.8090 -1.0900 321° Northwest 418 481 34,000 -180 Level FlightAware
07:49AM 52.8185 -1.1029 321° Northwest 462 532 33,900  Descending FlightAware UK
07:50AM 52.8810 -1.1890 320° Northwest 419 482 34,000 60 Climbing FlightAware
07:51AM 52.9400 -1.2710 320° Northwest 420 483 34,000  Level FlightAware
07:51AM 52.9431 -1.2751 320° Northwest 466 536 34,000  Level FlightAware UK
07:51AM 52.9967 -1.3493 320° Northwest 468 539 34,000  Level FlightAware UK
07:52AM 53.0010 -1.3550 320° Northwest 420 483 34,000  Level FlightAware
07:52AM 53.0680 -1.4480 320° Northwest 421 484 34,000 -120 Level FlightAware
07:53AM 53.1214 -1.5232 320° Northwest 466 536 33,900  Descending FlightAware UK
07:53AM 53.1300 -1.5350 320° Northwest 420 483 34,000 120 Climbing FlightAware
07:54AM 53.1900 -1.6200 320° Northwest 421 484 34,000 -120 Level FlightAware
07:54AM 53.2342 -1.6913 320° Northwest 466 536 33,900  Descending FlightAware UK
07:54AM 53.2440 -1.7120 320° Northwest 419 482 34,000 120 Climbing FlightAware
07:55AM 53.2860 -1.8200 303° West 420 483 34,000  Level FlightAware
07:56AM 53.3330 -1.9530 301° West 422 486 34,000  Level FlightAware
07:56AM 53.3741 -2.0718 301° West 470 541 34,000  Level FlightAware UK
07:57AM 53.3760 -2.0780 301° West 421 484 34,000  Level FlightAware
07:57AM 53.4088 -2.1730 301° West 472 543 34,000  Level FlightAware UK
07:57AM 53.4100 -2.1780 301° West 423 487 34,000  Level FlightAware
07:58AM 53.4530 -2.3020 300° West 422 486 34,000  Level FlightAware
07:59AM 53.4920 -2.4160 300° West 422 486 34,000  Level FlightAware
07:59AM 53.5350 -2.5420 300° West 422 486 34,000  Level FlightAware
08:00AM 53.5730 -2.6530 300° West 420 483 34,000  Level FlightAware
08:00AM 53.6057 -2.7507 300° West 474 545 34,000  Level FlightAware UK
08:01AM 53.6200 -2.7920 300° West 420 483 34,000  Level FlightAware
08:01AM 53.6570 -2.9030 299° West 419 482 34,000  Level FlightAware
08:02AM 53.6910 -3.0050 299° West 417 480 34,000  Level FlightAware
08:03AM 53.7340 -3.1330 299° West 416 479 34,000  Level FlightAware
08:03AM 53.7365 -3.1414 299° West 470 541 34,000  Level FlightAware UK
08:03AM 53.7720 -3.2500 299° West 415 478 34,000  Level FlightAware
08:03AM 53.7757 -3.2601 299° West 470 541 34,000  Level FlightAware UK
08:04AM 53.8140 -3.3560 304° West 415 478 34,000  Level FlightAware
08:05AM 53.8740 -3.4690 312° West 415 478 34,000  Level FlightAware
08:06AM 53.9260 -3.5640 313° West 416 479 34,000  Level FlightAware
08:06AM 53.9770 -3.6590 312° West 413 475 34,000  Level FlightAware
08:07AM 54.0360 -3.7680 313° West 414 476 34,000  Level FlightAware
08:08AM 54.0930 -3.8740 313° West 414 476 34,000 -120 Level FlightAware
08:08AM 54.1391 -3.9588 313° West 470 541 33,900  Descending FlightAware UK
08:08AM 54.1420 -3.9650 313° West 414 476 34,000 60 Climbing FlightAware
08:09AM 54.2020 -4.0770 313° West 414 476 34,000  Level FlightAware
08:10AM 54.2560 -4.1780 312° West 414 476 34,000  Level FlightAware
08:10AM 54.3070 -4.2720 313° West 414 476 34,000  Level FlightAware
08:11AM 54.3380 -4.3320 312° West 415 478 34,000  Level FlightAware
08:12AM 54.4010 -4.4490 313° West 414 476 34,000  Level FlightAware
08:12AM 54.4650 -4.5730 312° West 414 476 34,000  Level FlightAware
08:13AM 54.5170 -4.6740 312° West 415 478 34,000 -120 Level FlightAware
08:14AM 54.5618 -4.7616 312° West 468 539 33,900  Descending FlightAware UK
08:14AM 54.5710 -4.7790 312° West 415 478 34,000 120 Climbing FlightAware
08:15AM 54.6210 -4.8770 311° West 417 480 34,000  Level FlightAware
08:15AM 54.6720 -4.9780 311° West 418 481 34,000  Level FlightAware
08:16AM 54.7290 -5.0900 311° West 421 484 34,000  Level FlightAware
08:17AM 54.7860 -5.2040 311° West 424 488 34,000  Level FlightAware
08:17AM 54.8380 -5.3051 311° West 466 536 34,000  Level FlightAware UK
08:17AM 54.8390 -5.3060 311° West 429 494 34,000  Level FlightAware
08:18AM 54.9024 -5.3980 311° West 472 543 34,000  Level FlightAware UK
08:18AM 54.9040 -5.4010 311° West 437 503 34,000  Level FlightAware
08:19AM 54.9680 -5.4870 322° Northwest 439 505 34,000  Level FlightAware
08:19AM 55.0170 -5.5540 322° Northwest 441 507 34,000  Level FlightAware
08:20AM 55.1030 -5.6680 323° Northwest 443 510 34,000  Level FlightAware
08:21AM 55.1719 -5.7619 323° Northwest 476 548 34,000  Level FlightAware UK
08:21AM 55.1650 -5.7530 323° Northwest 443 510 34,000  Level FlightAware
08:21AM 55.2300 -5.8410 323° Northwest 474 545 34,000  Level FlightAware UK
08:22AM 55.2390 -5.8540 323° Northwest 444 511 34,000  Level FlightAware
08:22AM 55.2860 -5.9180 322° Northwest 445 512 34,000  Level FlightAware
08:23AM 55.3530 -6.0090 322° Northwest 445 512 34,000  Level FlightAware
08:23AM 55.4170 -6.0970 322° Northwest 445 512 34,000  Level FlightAware
08:23AM 55.4243 -6.1070 322° Northwest 484 557 34,000  Level FlightAware UK
08:24AM 55.4728 -6.1739 322° Northwest 482 555 34,000  Level FlightAware UK
08:24AM 55.4870 -6.1940 322° Northwest 444 511 34,000  Level FlightAware
08:25AM 55.5520 -6.2850 322° Northwest 442 509 34,000  Level FlightAware
08:26AM 55.6160 -6.3730 322° Northwest 441 507 34,000  Level FlightAware
08:26AM 55.6740 -6.4550 321° Northwest 441 507 34,000  Level FlightAware
08:27AM 55.7530 -6.5650 322° Northwest 439 505 34,000  Level FlightAware
08:28AM 55.8150 -6.6530 322° Northwest 437 503 34,000  Level FlightAware
08:28AM 55.8260 -6.6692 322° Northwest 474 545 34,000 -180 Level FlightAware UK
08:28AM 55.8732 -6.7359 322° Northwest 472 543 33,900  Descending FlightAware UK
08:28AM 55.8790 -6.7430 322° Northwest 435 501 34,000 120 Climbing FlightAware
08:29AM 55.9300 -6.8170 321° Northwest 434 499 34,000  Level FlightAware
08:30AM 56.0000 -6.9170 321° Northwest 434 499 34,000  Level FlightAware
08:30AM 56.0606 -7.0039 321° Northwest 468 539 34,000  Level FlightAware UK
08:30AM 56.0710 -7.0190 321° Northwest 434 499 34,000  Level FlightAware
08:31AM 56.1330 -7.1090 321° Northwest 435 501 34,000  Level FlightAware
08:32AM 56.2010 -7.2072 321° Northwest 466 536 34,000  Level FlightAware UK
08:32AM 56.2110 -7.2220 321° Northwest 436 502 34,000  Level FlightAware
08:33AM 56.2820 -7.3260 321° Northwest 438 504 34,000  Level FlightAware
08:33AM 56.3422 -7.4135 321° Northwest 466 536 34,000  Level FlightAware UK
08:33AM 56.3470 -7.4200 321° Northwest 441 507 34,000 120 Level FlightAware
08:34AM 56.4160 -7.5230 320° Northwest 437 503 34,100 720 Climbing FlightAware
08:35AM 56.4890 -7.6300 320° Northwest 436 502 35,100 1,380 Climbing FlightAware
08:35AM 56.4938 -7.6369 320° Northwest 470 541 35,200 840 Climbing FlightAware UK
08:35AM 56.5430 -7.7100 320° Northwest 434 499 35,600 780 Climbing FlightAware
08:35AM 56.5492 -7.7195 320° Northwest 472 543 35,700 720 Climbing FlightAware UK
08:36AM 56.5956 -7.7890 320° Northwest 468 539 36,000 420 Climbing FlightAware UK
08:36AM 56.6120 -7.8140 320° Northwest 437 503 36,000  Level FlightAware
08:37AM 56.6660 -7.8950 321° Northwest 437 503 36,000  Level FlightAware
08:37AM 56.7355 -7.9988 321° Northwest 470 541 36,000  Level FlightAware UK
08:37AM 56.7440 -8.0120 321° Northwest 429 494 36,000  Level FlightAware
08:38AM 56.8150 -8.1190 320° Northwest 427 491 36,000  Level FlightAware
08:39AM 56.8670 -8.1990 320° Northwest 427 491 36,000  Level FlightAware
08:39AM 56.8740 -8.2091 320° Northwest 468 539 36,000  Level FlightAware UK
08:39AM 56.9199 -8.2792 320° Northwest 468 539 36,000  Level FlightAware UK
08:40AM 56.9370 -8.3050 320° Northwest 426 490 36,000  Level FlightAware
08:40AM 57.0050 -8.4100 320° Northwest 425 489 36,000  Level FlightAware
08:41AM 57.0630 -8.5000 320° Northwest 426 490 36,000  Level FlightAware
08:42AM 57.1330 -8.6080 320° Northwest 425 489 36,000  Level FlightAware
08:42AM 57.1849 -8.6884 320° Northwest 468 539 36,000  Level FlightAware UK
08:42AM 57.1940 -8.7030 320° Northwest 426 490 36,000  Level FlightAware
08:43AM 57.2620 -8.8090 320° Northwest 426 490 36,000  Level FlightAware
08:44AM 57.3217 -8.9031 320° Northwest 468 539 36,000  Level FlightAware UK
08:44AM 57.3230 -8.9050 320° Northwest 427 491 36,000  Level FlightAware
08:44AM 57.3762 -8.9891 320° Northwest 468 539 36,000  Level FlightAware UK
08:44AM 57.3840 -9.0020 320° Northwest 428 493 36,000  Level FlightAware
08:45AM 57.4510 -9.1090 319° Northwest 430 495 36,000  Level FlightAware
08:46AM 57.5130 -9.2070 320° Northwest 431 496 36,000  Level FlightAware
08:47AM 57.5820 -9.3170 320° Northwest 432 497 36,000  Level FlightAware
08:48AM 57.6860 -9.4870 319° Northwest 432 497 36,000  Level FlightAware
08:48AM 57.7450 -9.5810 320° Northwest 434 499 36,000  Level FlightAware
08:49AM 57.8130 -9.6920 319° Northwest 433 498 36,000  Level FlightAware
08:50AM 57.9170 -9.8630 319° Northwest 435 501 36,000  Level FlightAware
08:51AM 57.9730 -9.9550 319° Northwest 434 499 36,000  Level FlightAware
08:52AM 58.0300 -10.1020 306° West 438 504 36,000  Level FlightAware
08:52AM 58.0690 -10.2170 303° West 438 504 36,000  Level FlightAware
08:53AM 58.1110 -10.3400 303° West 438 504 36,000  Level FlightAware
08:54AM 58.1550 -10.4660 304° West 438 504 36,000  Level FlightAware
08:55AM 58.2150 -10.8710 286° West 434 499 36,000  Level FlightAware
08:56AM 58.2400 -10.9730 295° West 433 498 36,000  Level FlightAware
08:57AM 58.2920 -11.1870 295° West 430 495 36,000  Level FlightAware
08:58AM 58.3240 -11.3240 294° West 433 498 36,000  Level FlightAware
08:59AM 58.3740 -11.5360 294° West 434 499 36,000  Level FlightAware
08:59AM 58.4070 -11.6760 294° West 435 501 36,000  Level FlightAware
09:00AM 58.4290 -11.7710 294° West 435 501 36,000  Level FlightAware
09:01AM 58.5070 -12.1090 294° West 438 504 36,000  Level FlightAware
09:02AM 58.5350 -12.2370 293° West 438 504 36,000  Level FlightAware
09:03AM 58.5830 -12.4430 294° West 437 503 36,000  Level FlightAware
09:04AM 58.6130 -12.5870 292° West 437 503 36,000  Level FlightAware
09:06AM 58.6384 -12.9576 278° West  Level Estimated
09:06AM 58.6830 -12.9170 278° West 437 503 36,000  Level FlightAware
09:06AM 58.7090 -13.0430 292° West 437 503 36,000  Level FlightAware
09:07AM 58.7460 -13.2180 292° West 437 503 36,000  Level FlightAware
09:08AM 58.7710 -13.3380 292° West 437 503 36,000  Level FlightAware
09:08AM 58.7860 -13.4090 292° West 437 503 36,000  Level FlightAware
09:09AM 58.8180 -13.5630 292° West 437 503 36,000  Level FlightAware
09:10AM 58.8420 -13.6800 292° West 437 503 36,000  Level FlightAware
09:11AM 58.8730 -13.8270 292° West 437 503 36,000  Level FlightAware
09:11AM 58.9000 -13.9540 292° West 437 503 36,000  Level FlightAware
09:12AM 58.9250 -14.0740 292° West 437 503 36,000  Level FlightAware
09:13AM 58.9500 -14.1950 292° West 437 503 36,000  Level FlightAware
09:15AM 58.9729 -14.6331 276° West  Level Estimated
09:16AM 58.9838 -14.8542 276° West  Level Estimated
09:17AM 58.9944 -15.0755 275° West  Level Estimated
09:18AM 59.0046 -15.2969 275° West  Level Estimated
09:19AM 59.0144 -15.5184 275° West  Level Estimated
09:20AM 59.0239 -15.7400 275° West  Level Estimated
09:21AM 59.0330 -15.9617 275° West  Level Estimated
09:22AM 59.0416 -16.1836 274° West  Level Estimated
09:23AM 59.0499 -16.4056 274° West  Level Estimated
09:24AM 59.0579 -16.6277 274° West  Level Estimated
09:25AM 59.0654 -16.8498 274° West  Level Estimated
09:26AM 59.0726 -17.0721 274° West  Level Estimated
09:27AM 59.0794 -17.2945 273° West  Level Estimated
09:28AM 59.0858 -17.5170 273° West  Level Estimated
09:29AM 59.0918 -17.7395 273° West  Level Estimated
09:30AM 59.0975 -17.9621 273° West  Level Estimated
09:31AM 59.1027 -18.1848 273° West  Level Estimated
09:32AM 59.1076 -18.4075 273° West  Level Estimated
09:33AM 59.1121 -18.6303 272° West  Level Estimated
09:34AM 59.1163 -18.8532 272° West  Level Estimated
09:35AM 59.1200 -19.0761 272° West  Level Estimated
09:36AM 59.1234 -19.2991 272° West  Level Estimated
09:37AM 59.1264 -19.5221 272° West  Level Estimated
09:38AM 59.1290 -19.7451 271° West  Level Estimated
09:38AM 60.0000 -20.0000 297° West 459 528 36,000  Level ETMS Enhanced Traffic Management System
09:39AM 59.1312 -19.9682 271° West  Level Estimated
09:40AM 59.1330 -20.1913 271° West  Level Estimated
09:41AM 59.1344 -20.4139 271° West  Level Estimated
09:41AM 60.2330 -20.9460 271° West 448 516 36,000  Level FlightAware
09:42AM 60.2650 -21.0840 295° West 448 516 36,000  Level FlightAware
09:42AM 60.3040 -21.2430 296° West 450 518 36,000  Level FlightAware
09:43AM 60.3610 -21.4800 295° West 453 521 36,000  Level FlightAware
09:44AM 60.3926 -21.6165 295° West 459 528 36,000  Level FlightAware Transoceanic
09:44AM 60.3980 -21.6390 295° West 454 522 36,000  Level FlightAware
09:45AM 60.4390 -21.8150 295° West 455 524 36,000  Level FlightAware
09:46AM 60.4770 -21.9780 295° West 457 526 36,000  Level FlightAware
09:46AM 60.5210 -22.1750 294° West 456 525 36,000  Level FlightAware
09:47AM 60.5600 -22.3450 295° West 458 527 36,000  Level FlightAware
09:48AM 60.5980 -22.5130 295° West 459 528 36,000  Level FlightAware
09:49AM 60.6350 -22.6790 295° West 459 528 36,000  Level FlightAware
09:49AM 60.6710 -22.8390 295° West 460 529 36,000  Level FlightAware
09:50AM 60.7060 -22.9980 294° West 461 531 36,000  Level FlightAware
09:51AM 60.7430 -23.1680 294° West 462 532 36,000  Level FlightAware
09:51AM 60.7810 -23.3450 294° West 463 533 36,000  Level FlightAware
09:52AM 60.8150 -23.5030 294° West 464 534 36,000  Level FlightAware
09:53AM 60.8480 -23.6580 294° West 464 534 36,000  Level FlightAware
09:53AM 60.8900 -23.8540 294° West 467 537 36,000  Level FlightAware
09:54AM 60.9340 -24.0660 293° West 468 539 36,000  Level FlightAware
09:55AM 60.9600 -24.1920 293° West 468 539 36,000  Level FlightAware
09:56AM 60.9940 -24.3600 293° West 468 539 36,000  Level FlightAware
09:56AM 61.0360 -24.5630 293° West 471 542 36,000  Level FlightAware
09:57AM 61.0790 -24.7750 293° West 473 544 36,000  Level FlightAware
09:58AM 61.1140 -24.9500 293° West 473 544 36,000  Level FlightAware
09:59AM 60.0000 -20.0000 297° West 459 528 36,000  Level ETMS Enhanced Traffic Management System
09:59AM 61.1480 -25.1190 293° West 474 545 36,000  Level FlightAware
09:59AM 61.1800 -25.2820 292° West 475 547 36,000  Level FlightAware
10:00AM 61.2120 -25.4470 292° West 475 547 36,000  Level FlightAware
10:01AM 61.2520 -25.6520 292° West 476 548 36,000  Level FlightAware
10:01AM 61.2810 -25.8030 292° West 477 549 36,000  Level FlightAware
10:02AM 61.3190 -26.0040 292° West 477 549 36,000  Level FlightAware
10:03AM 61.3490 -26.1650 291° West 478 550 36,000  Level FlightAware
10:03AM 61.3720 -26.2930 291° West 478 550 36,000  Level FlightAware
10:04AM 61.4200 -26.5460 297° West 478 550 36,000  Level FlightAware
10:05AM 61.4530 -26.7270 291° West 478 550 36,000  Level FlightAware
10:06AM 61.4840 -26.9000 291° West 478 550 36,000  Level FlightAware
10:06AM 61.5150 -27.0720 291° West 477 549 36,000  Level FlightAware
10:07AM 61.5370 -27.1980 290° West 477 549 36,000  Level FlightAware
10:08AM 61.5760 -27.4240 290° West 477 549 36,000  Level FlightAware
10:09AM 61.5990 -27.5570 290° West 477 549 36,000  Level FlightAware
10:09AM 61.6280 -27.7280 290° West 477 549 36,000  Level FlightAware
10:10AM 61.6870 -28.0590 291° West 476 548 36,000  Level FlightAware
10:11AM 61.7370 -28.3550 290° West 477 549 36,000  Level FlightAware
10:12AM 61.7660 -28.5250 290° West 476 548 36,000  Level FlightAware
10:12AM 61.7960 -28.7130 289° West 476 548 36,000  Level FlightAware
10:13AM 61.8190 -28.8550 289° West 476 548 36,000  Level FlightAware
10:14AM 61.8570 -29.0840 289° West 477 549 36,000  Level FlightAware
10:15AM 61.8790 -29.2280 288° West 477 549 36,000  Level FlightAware
10:15AM 61.9090 -29.4250 288° West 477 549 36,000  Level FlightAware
10:16AM 61.9530 -29.6970 289° West 479 551 36,000  Level FlightAware
10:17AM 61.9770 -29.8490 289° West 479 551 36,000  Level FlightAware
10:18AM 62.0040 -30.0320 288° West 479 551 36,000  Level FlightAware
10:18AM 62.0250 -30.1700 288° West 479 551 36,000  Level FlightAware
10:19AM 62.0470 -30.3110 288° West 479 551 36,000  Level FlightAware
10:20AM 62.0750 -30.4950 288° West 479 551 36,000  Level FlightAware
10:20AM 62.0960 -30.6360 288° West 479 551 36,000  Level FlightAware
10:21AM 62.0000 -30.0000 274° West 469 540 36,000  Level ETMS Enhanced Traffic Management System
10:21AM 62.1240 -30.8160 288° West 479 551 36,000  Level FlightAware
10:22AM 62.1450 -30.9540 288° West 479 551 36,000  Level FlightAware
10:22AM 62.1720 -31.1350 288° West 479 551 36,000  Level FlightAware
10:23AM 62.1940 -31.2800 288° West 479 551 36,000  Level FlightAware
10:24AM 62.2230 -31.4690 288° West 479 551 36,000  Level FlightAware
10:25AM 62.2420 -31.6000 287° West 479 551 36,000  Level FlightAware
10:25AM 62.2710 -31.7880 288° West 479 551 36,000  Level FlightAware
10:26AM 62.2920 -31.9270 274° West 479 551 36,000  Level FlightAware
10:29AM 62.2060 -32.5723 254° West  Level Estimated
10:30AM 62.1719 -32.8211 254° West  Level Estimated
10:31AM 62.1374 -33.0694 254° West  Level Estimated
10:32AM 62.1024 -33.3171 253° West  Level Estimated
10:33AM 62.0670 -33.5642 253° West  Level Estimated
10:34AM 62.0311 -33.8107 253° West  Level Estimated
10:35AM 61.9948 -34.0566 253° West  Level Estimated
10:36AM 61.9581 -34.3020 252° West  Level Estimated
10:37AM 61.9209 -34.5467 252° West  Level Estimated
10:38AM 61.8833 -34.7909 252° West  Level Estimated
10:39AM 61.8453 -35.0345 252° West  Level Estimated
10:40AM 61.8068 -35.2774 252° West  Level Estimated
10:41AM 61.7679 -35.5197 251° West  Level Estimated
10:41AM 62.0833 -36.5500 250° West 490 564 36,000  Level Gander Center
10:42AM 61.7286 -35.7615 251° West  Level Estimated
10:42AM 62.0833 -36.8167 270° West 490 564 36,000  Level Gander Center
10:43AM 61.6889 -36.0026 251° West  Level Estimated
10:43AM 62.0667 -37.1333 264° West 490 564 36,000  Level Gander Center
10:44AM 61.6487 -36.2430 251° West  Level Estimated
10:44AM 62.0667 -37.4000 270° West 490 564 36,000  Level Gander Center
10:45AM 61.6081 -36.4829 251° West  Level Estimated
10:45AM 62.0667 -37.7000 270° West 490 564 36,000  Level Gander Center
10:46AM 61.5671 -36.7221 250° West  Level Estimated
10:46AM 62.0500 -37.9667 263° West 490 564 36,000  Level Gander Center
10:47AM 61.5257 -36.9607 250° West  Level Estimated
10:47AM 62.0500 -38.2667 270° West 490 564 36,000  Level Gander Center
10:48AM 62.0333 -38.5167 262° West 490 564 36,000  Level Gander Center
10:49AM 62.0333 -38.8167 270° West 490 564 36,000  Level Gander Center
10:50AM 62.0333 -39.0833 270° West 490 564 36,000  Level Gander Center
10:51AM 62.0167 -39.3833 263° West 490 564 36,000  Level Gander Center
10:52AM 62.0167 -39.6500 270° West 490 564 36,000  Level Gander Center
10:53AM 62.0000 -39.9500 263° West 490 564 36,000  Level Gander Center
10:54AM 61.9833 -40.2333 263° West 480 552 36,000  Level Gander Center
10:55AM 62.0000 -40.0000 263° West 473 544 36,000  Level ETMS Enhanced Traffic Management System
10:55AM 61.9667 -40.5000 263° West 480 552 36,000  Level Gander Center
10:56AM 61.9500 -40.8000 263° West 480 552 36,000  Level Gander Center
10:57AM 61.9333 -41.0667 263° West 480 552 36,000  Level Gander Center
10:58AM 61.9000 -41.3333 255° West 490 564 36,000  Level Gander Center
10:59AM 61.8833 -41.6333 263° West 480 552 36,000  Level Gander Center
11:00AM 61.8667 -41.9167 263° West 490 564 36,000  Level Gander Center
11:01AM 61.8500 -42.1667 262° West 490 564 36,000  Level Gander Center
11:02AM 61.8167 -42.4833 258° West 490 564 36,000  Level Gander Center
11:03AM 61.8000 -42.7500 263° West 490 564 36,000  Level Gander Center
11:04AM 61.7667 -43.0167 255° West 490 564 36,000  Level Gander Center
11:05AM 61.7500 -43.3167 263° West 490 564 36,000  Level Gander Center
11:06AM 61.7167 -43.5833 255° West 490 564 36,000  Level Gander Center
11:07AM 61.7000 -43.8500 263° West 490 564 36,000  Level Gander Center
11:08AM 61.6667 -44.1500 257° West 490 564 36,000  Level Gander Center
11:09AM 61.6500 -44.4167 263° West 490 564 36,000  Level Gander Center
11:10AM 61.6167 -44.6833 255° West 490 564 36,000  Level Gander Center
11:11AM 61.6000 -44.9667 263° West 490 564 36,000  Level Gander Center
11:12AM 61.5667 -45.2333 255° West 490 564 36,000  Level Gander Center
11:13AM 61.5500 -45.5000 263° West 490 564 36,000  Level Gander Center
11:14AM 61.5167 -45.8000 257° West 490 564 36,000  Level Gander Center
11:15AM 61.4833 -46.0667 255° West 490 564 36,000  Level Gander Center
11:16AM 61.4667 -46.3167 262° West 490 564 36,000  Level Gander Center
11:17AM 61.4333 -46.6167 257° West 490 564 36,000  Level Gander Center
11:18AM 61.4000 -46.8833 255° West 490 564 36,000  Level Gander Center
11:19AM 61.3667 -47.1500 255° West 490 564 36,000  Level Gander Center
11:20AM 61.3333 -47.4333 256° West 490 564 36,000  Level Gander Center
11:21AM 61.3000 -47.7000 256° West 490 564 36,000  Level Gander Center
11:22AM 61.2667 -48.0000 257° West 490 564 36,000  Level Gander Center
11:23AM 61.2333 -48.2500 255° West 490 564 36,000  Level Gander Center
11:24AM 61.2000 -48.5000 255° West 490 564 36,000  Level Gander Center
11:25AM 61.1667 -48.7667 256° West 490 564 36,000  Level Gander Center
11:26AM 61.1167 -49.0667 251° West 490 564 36,000  Level Gander Center
11:27AM 61.0833 -49.3167 255° West 490 564 36,000  Level Gander Center
11:28AM 61.0500 -49.5667 255° West 490 564 36,000  Level Gander Center
11:29AM 61.0167 -49.8667 257° West 490 564 36,000  Level Gander Center
11:30AM 60.9667 -50.1167 248° West 490 564 36,000  Level Gander Center
11:31AM 61.0000 -50.0000 253° West 472 543 36,000  Level ETMS Enhanced Traffic Management System
11:31AM 60.9500 -50.3667 253° West 480 552 36,000  Level Gander Center
11:32AM 60.9000 -50.6333 249° West 480 552 36,000  Level Gander Center
11:33AM 60.8500 -50.9167 250° West 480 552 36,000  Level Gander Center
11:34AM 60.8167 -51.1667 255° West 480 552 36,000  Level Gander Center
11:35AM 60.7667 -51.4167 248° West 480 552 36,000  Level Gander Center
11:36AM 60.7333 -51.6667 255° West 480 552 36,000  Level Gander Center
11:37AM 60.6833 -51.9333 249° West 480 552 36,000  Level Gander Center
11:38AM 60.6333 -52.2167 250° West 480 552 36,000  Level Gander Center
11:39AM 60.5833 -52.4667 248° West 480 552 36,000  Level Gander Center
11:40AM 60.5500 -52.7167 255° West 480 552 36,000  Level Gander Center
11:41AM 60.5000 -53.0000 250° West 480 552 36,000  Level Gander Center
11:42AM 60.4500 -53.2500 248° West 480 552 36,000  Level Gander Center
11:43AM 60.4167 -53.5000 255° West 480 552 36,000  Level Gander Center
11:44AM 60.3667 -53.7333 247° West 480 552 36,000  Level Gander Center
11:45AM 60.3333 -53.9833 255° West 480 552 36,000  Level Gander Center
11:46AM 60.2667 -54.2333 242° Southwest 480 552 36,000  Level Gander Center
11:47AM 60.2167 -54.4833 248° West 480 552 36,000  Level Gander Center
11:48AM 60.1833 -54.7167 254° West 480 552 36,000  Level Gander Center
11:49AM 60.1167 -55.0000 245° Southwest 480 552 36,000  Level Gander Center
11:50AM 60.0833 -55.2333 254° West 480 552 36,000  Level Gander Center
11:51AM 60.0333 -55.4833 248° West 480 552 36,000  Level Gander Center
11:52AM 59.9667 -55.7333 242° Southwest 480 552 36,000  Level Gander Center
11:53AM 59.9333 -55.9667 254° West 480 552 36,000  Level Gander Center
11:54AM 59.8667 -56.2000 240° Southwest 480 552 36,000  Level Gander Center
11:55AM 59.8167 -56.4500 248° West 480 552 36,000  Level Gander Center
11:56AM 59.7333 -56.6500 230° Southwest 480 552 36,000  Level Gander Center
11:57AM 59.6333 -56.8000 217° Southwest 480 552 36,000  Level Gander Center
11:58AM 59.5167 -56.9833 219° Southwest 480 552 36,000  Level Gander Center
11:59AM 59.4000 -57.1333 213° Southwest 480 552 36,000  Level Gander Center
12:00PM 59.3167 -57.3000 226° Southwest 480 552 36,000  Level Gander Center
12:01PM 59.2000 -57.4500 213° Southwest 480 552 36,000  Level Gander Center
12:02PM 59.0833 -57.5833 210° Southwest 480 552 36,000  Level Gander Center
12:03PM 58.9833 -57.7500 221° Southwest 480 552 36,000  Level Gander Center
12:04PM 58.8833 -57.9000 218° Southwest 480 552 36,000  Level Gander Center
12:05PM 58.7667 -58.0333 211° Southwest 480 552 36,000  Level Gander Center
12:06PM 58.6667 -58.1667 215° Southwest 480 552 36,000  Level Gander Center
12:07PM 58.5500 -58.3500 219° Southwest 480 552 36,000  Level Gander Center
12:08PM 58.4333 -58.4833 211° Southwest 480 552 36,000  Level Gander Center
12:09PM 58.3500 -58.6167 220° Southwest 480 552 36,000  Level Gander Center
12:10PM 58.2500 -58.7833 221° Southwest 480 552 36,000  Level Gander Center
12:11PM 58.1333 -58.9167 211° Southwest 470 541 36,000  Level Gander Center
12:12PM 58.0167 -59.0500 211° Southwest 470 541 36,000  Level Gander Center
12:13PM 57.9167 -59.2167 222° Southwest 470 541 36,000  Level Gander Center
12:14PM 57.8000 -59.3500 211° Southwest 480 552 36,000  Level Gander Center
12:15PM 57.7000 -59.5000 219° Southwest 440 506 36,000  Level Gander Center
12:16PM 57.6000 -59.6333 216° Southwest 470 541 36,000  Level Gander Center
12:17PM 57.5000 -59.7667 216° Southwest 470 541 36,000  Level Gander Center
12:18PM 57.3833 -59.8833 208° Southwest 470 541 36,000  Level Gander Center
12:19PM 57.2667 -60.0500 218° Southwest 480 552 36,000  Level Gander Center
12:20PM 57.1667 -60.1667 212° Southwest 480 552 36,000  Level Gander Center
12:21PM 57.0500 -60.3333 218° Southwest 470 541 36,000  Level Gander Center
12:22PM 56.9333 -60.4500 209° Southwest 470 541 36,000  Level Gander Center
12:23PM 56.8167 -60.6167 218° Southwest 460 529 36,000  Level Gander Center
12:24PM 56.7167 -60.7333 213° Southwest 470 541 36,000  Level Gander Center
12:25PM 56.6167 -60.8500 213° Southwest 470 541 36,000  Level Gander Center
12:26PM 56.5000 -61.0167 218° Southwest 470 541 36,000  Level Gander Center
12:27PM 56.4000 -61.1333 213° Southwest 470 541 36,000  Level Gander Center
12:28PM 56.2833 -61.2500 209° Southwest 460 529 36,000  Level Gander Center
12:29PM 56.1833 -61.3667 213° Southwest 460 529 36,000  Level Gander Center
12:30PM 56.0667 -61.4833 209° Southwest 460 529 36,000  Level Gander Center
12:31PM 55.9667 -61.6333 220° Southwest 460 529 36,000  Level Gander Center
12:32PM 55.8500 -61.7500 209° Southwest 460 529 36,000  Level Gander Center
12:33PM 55.7500 -61.8833 217° Southwest 460 529 36,000  Level Gander Center
12:34PM 55.6500 -62.0000 213° Southwest 460 529 36,000  Level Gander Center
12:35PM 55.5333 -62.1167 210° Southwest 460 529 36,000  Level Gander Center
12:36PM 55.4333 -62.2500 217° Southwest 460 529 36,000  Level Gander Center
12:37PM 55.3167 -62.3667 210° Southwest 460 529 36,000  Level Gander Center
12:38PM 55.2167 -62.4833 214° Southwest 460 529 36,000  Level Gander Center
12:39PM 55.1000 -62.6000 210° Southwest 460 529 36,000  Level Gander Center
12:40PM 55.0000 -62.7167 214° Southwest 460 529 36,000  Level Gander Center
12:41PM 54.8833 -62.8500 213° Southwest 460 529 36,000  Level Gander Center
12:42PM 54.7833 -62.9667 214° Southwest 460 529 36,000  Level Gander Center
12:43PM 54.6833 -63.0667 210° Southwest 450 518 36,000  Level Gander Center
12:44PM 54.5667 -63.1833 210° Southwest 450 518 36,000  Level Gander Center
12:45PM 54.4667 -63.3000 214° Southwest 450 518 36,000  Level Gander Center
12:46PM 54.3500 -63.4000 207° Southwest 450 518 36,000  Level Gander Center
12:47PM 54.2500 -63.5167 214° Southwest 450 518 36,000  Level Gander Center
12:48PM 54.1500 -63.6500 218° Southwest 440 506 36,000  Level Gander Center
12:49PM 54.0333 -63.7333 203° Southwest 440 506 36,000  Level Gander Center
12:50PM 53.9333 -63.8333 210° Southwest 420 483 36,000  Level Gander Center
12:51PM 53.8333 -63.9500 215° Southwest 420 483 36,000  Level Gander Center
12:52PM 53.7333 -64.0500 211° Southwest 420 483 36,000  Level Gander Center
12:53PM 53.6500 -64.1667 220° Southwest 420 483 36,000  Level Gander Center
12:54PM 53.5500 -64.2667 211° Southwest 420 483 36,000  Level Gander Center
12:55PM 53.4333 -64.3667 207° Southwest 420 483 36,000  Level Gander Center
12:56PM 53.3333 -64.4500 206° Southwest 420 483 36,000  Level Gander Center
12:57PM 53.2333 -64.5500 211° Southwest 420 483 36,000  Level Gander Center
12:58PM 53.1500 -64.6500 216° Southwest 420 483 36,000  Level Gander Center
12:59PM 53.0333 -64.7500 207° Southwest 420 483 36,000  Level Gander Center
01:00PM 52.9333 -64.8667 215° Southwest 410 472 36,000  Level Gander Center
01:01PM 52.8333 -64.9333 202° Southwest 410 472 36,000  Level Gander Center
01:02PM 52.7333 -65.0333 211° Southwest 410 472 36,000  Level Gander Center
01:03PM 52.6333 -65.1333 211° Southwest 410 472 36,000  Level Gander Center
01:04PM 52.5500 -65.2500 220° Southwest 410 472 36,000  Level Gander Center
01:05PM 52.4333 -65.3500 208° Southwest 410 472 36,000  Level Gander Center
01:06PM 52.3333 -65.4167 202° Southwest 410 472 36,000  Level Gander Center
01:07PM 52.2500 -65.5167 216° Southwest 410 472 36,000  Level Gander Center
01:08PM 52.1500 -65.6167 212° Southwest 410 472 36,000  Level Gander Center
01:09PM 52.0500 -65.6833 202° Southwest 410 472 36,000  Level Gander Center
01:10PM 51.9333 -65.7833 208° Southwest 410 472 36,000  Level Gander Center
01:11PM 51.8500 -65.8833 217° Southwest 420 483 36,000  Level Gander Center
01:12PM 51.7667 -65.9333 200° South 430 495 36,000  Level Moncton Center
01:13PM 51.6667 -66.0500 216° Southwest 430 495 36,000  Level Moncton Center
01:14PM 51.5667 -66.1500 212° Southwest 430 495 36,000  Level Moncton Center
01:15PM 51.4833 -66.1833 194° South 430 495 36,000  Level Montreal Center
01:16PM 51.3833 -66.2667 207° Southwest 430 495 36,000  Level Montreal Center
01:17PM 51.2667 -66.3667 208° Southwest 430 495 36,000  Level Montreal Center
01:18PM 51.1833 -66.4500 212° Southwest 430 495 36,000  Level Montreal Center
01:19PM 51.0667 -66.5500 208° Southwest 430 495 36,000  Level Montreal Center
01:20PM 50.9500 -66.6500 208° Southwest 430 495 36,000  Level Montreal Center
01:21PM 50.8667 -66.7167 207° Southwest 430 495 36,000  Level Montreal Center
01:22PM 50.7500 -66.8333 212° Southwest 430 495 36,000  Level Montreal Center
01:22PM 50.7000 -66.9167 227° Southwest 430 495 36,000  Level Gander Center
01:23PM 50.5833 -67.0000 204° Southwest 430 495 36,000  Level Gander Center
01:24PM 50.5000 -67.1000 217° Southwest 430 495 36,000  Level Gander Center
01:25PM 50.4167 -67.1500 201° Southwest 430 495 36,000  Level Moncton Center
01:26PM 50.3333 -67.1667 187° South 430 495 36,000  Level Montreal Center
01:27PM 50.2333 -67.2667 213° Southwest 430 495 36,000  Level Montreal Center
01:28PM 50.1167 -67.3667 209° Southwest 430 495 36,000  Level Montreal Center
01:28PM 50.0500 -67.4500 219° Southwest 430 495 36,000  Level Gander Center
01:29PM 49.9500 -67.5500 213° Southwest 430 495 36,000  Level Gander Center
01:30PM 49.8500 -67.6333 208° Southwest 430 495 36,000  Level Gander Center
01:31PM 49.7833 -67.6833 206° Southwest 430 495 36,000  Level Moncton Center
01:32PM 49.7000 -67.7167 195° South 430 495 36,000  Level Montreal Center
01:33PM 49.6000 -67.8000 208° Southwest 430 495 36,000  Level Montreal Center
01:34PM 49.4833 -67.9000 209° Southwest 430 495 36,000  Level Montreal Center
01:35PM 49.3833 -67.9667 203° Southwest 430 495 36,000  Level Montreal Center
01:36PM 49.2833 -68.0667 213° Southwest 430 495 36,000  Level Montreal Center
01:37PM 49.1667 -68.1667 209° Southwest 430 495 36,000  Level Montreal Center
01:38PM 49.0667 -68.2833 217° Southwest 430 495 36,000  Level Montreal Center
01:39PM 49.0000 -68.4000 229° Southwest 420 483 36,000  Level Montreal Center
01:40PM 48.9000 -68.5167 218° Southwest 420 483 36,000  Level Montreal Center
01:41PM 48.8000 -68.6333 218° Southwest 420 483 36,000  Level Montreal Center
01:46PM 48.3670 -69.3190 218° Southwest 431 496 36,000  Level FlightAware
01:47PM 48.3670 -69.3190 218° Southwest 433 498 36,000  Level FlightAware
01:47PM 48.2530 -69.4770 223° Southwest 433 498 36,000  Level FlightAware
01:48PM 48.1680 -69.5950 223° Southwest 434 499 36,000  Level FlightAware
01:49PM 48.1060 -69.6800 222° Southwest 435 501 36,000  Level FlightAware
01:50PM 48.0370 -69.7750 223° Southwest 435 501 36,000  Level FlightAware
01:51PM 47.9580 -69.8840 223° Southwest 433 498 36,000  Level FlightAware
01:51PM 47.8960 -69.9680 222° Southwest 433 498 36,000  Level FlightAware
01:52PM 47.8310 -70.0560 222° Southwest 433 498 36,000  Level FlightAware
01:53PM 47.7770 -70.1290 222° Southwest 433 498 36,000  Level FlightAware
01:54PM 47.6890 -70.2490 223° Southwest 431 496 36,000  Level FlightAware
01:54PM 47.6360 -70.3200 222° Southwest 431 496 36,000  Level FlightAware
01:55PM 47.5670 -70.4130 222° Southwest 433 498 36,000  Level FlightAware
01:56PM 47.4990 -70.5030 222° Southwest 433 498 36,000  Level FlightAware
01:56PM 47.4460 -70.5740 222° Southwest 433 498 36,000  Level FlightAware
01:57PM 47.3780 -70.6630 222° Southwest 432 497 36,000  Level FlightAware
01:58PM 47.3190 -70.7420 222° Southwest 433 498 36,000  Level FlightAware
01:59PM 47.2500 -70.8320 222° Southwest 433 498 36,000  Level FlightAware
01:59PM 47.1910 -70.9100 222° Southwest 433 498 36,000  Level FlightAware
02:00PM 47.1360 -70.9820 222° Southwest 434 499 36,000  Level FlightAware
02:01PM 47.0650 -71.0750 222° Southwest 434 499 36,000  Level FlightAware
02:01PM 46.9970 -71.1630 221° Southwest 435 501 36,000  Level FlightAware
02:02PM 46.9360 -71.2430 222° Southwest 436 502 36,000  Level FlightAware
02:03PM 46.8690 -71.3290 221° Southwest 437 503 36,000  Level FlightAware
02:03PM 46.8160 -71.3970 221° Southwest 437 503 36,000  Level FlightAware
02:04PM 46.7560 -71.4740 221° Southwest 437 503 36,000  Level FlightAware
02:05PM 46.6900 -71.5590 221° Southwest 437 503 36,000 -240 Level FlightAware
02:06PM 46.6240 -71.6430 221° Southwest 435 501 35,700 -900 Descending FlightAware
02:06PM 46.5600 -71.7240 221° Southwest 438 504 34,800 -1,140 Descending FlightAware
02:07PM 46.4970 -71.8060 222° Southwest 437 503 34,200 -1,200 Descending FlightAware
02:08PM 46.4350 -71.9010 227° Southwest 428 493 33,100 -1,980 Descending FlightAware
02:08PM 46.3750 -71.9940 227° Southwest 419 482 31,300 -2,400 Descending FlightAware
02:09PM 46.3230 -72.0730 226° Southwest 411 473 29,800 -2,340 Descending FlightAware
02:10PM 46.2660 -72.1590 226° Southwest 403 464 28,100 -2,400 Descending FlightAware
02:10PM 46.2170 -72.2320 226° Southwest 396 456 26,600 -2,400 Descending FlightAware
02:11PM 46.1580 -72.3200 226° Southwest 389 448 24,800 -2,340 Descending FlightAware
02:12PM 46.1040 -72.4010 226° Southwest 383 441 23,100 -2,340 Descending FlightAware
02:13PM 46.0560 -72.4730 226° Southwest 377 434 21,600 -2,220 Descending FlightAware
02:13PM 46.0030 -72.5510 226° Southwest 371 427 20,000 -2,220 Descending FlightAware
02:14PM 45.9560 -72.6220 226° Southwest 363 418 18,500 -1,980 Descending FlightAware
02:15PM 45.9080 -72.6930 226° Southwest 345 397 17,300 -1,980 Descending FlightAware
02:15PM 45.8630 -72.7590 226° Southwest 338 389 15,800 -2,340 Descending FlightAware
02:16PM 45.8170 -72.8270 226° Southwest 311 358 14,100 -2,100 Descending FlightAware
02:17PM 45.7740 -72.8900 226° Southwest 304 350 12,800 -1,860 Descending FlightAware
02:18PM 45.7350 -72.9490 227° Southwest 299 344 11,500 -1,860 Descending FlightAware
02:18PM 45.7220 -72.9970 249° West 285 328 10,700 -1,200 Descending FlightAware
02:19PM 45.7140 -73.0650 260° West 250 288 10,200 -660 Descending FlightAware
02:19PM 45.7060 -73.1340 261° West 221 254 9,800 -720 Descending FlightAware
02:20PM 45.6990 -73.1780 257° West 229 264 9,300 -1,500 Descending FlightAware
02:20PM 45.6920 -73.2210 257° West 250 288 8,400 -1,980 Descending FlightAware
02:21PM 45.6850 -73.2650 257° West 241 277 7,500 -1,560 Descending FlightAware
02:21PM 45.6780 -73.3040 256° West 219 252 7,000 -1,260 Descending FlightAware
02:22PM 45.6730 -73.3340 257° West 209 241 6,500 -1,260 Descending FlightAware
02:22PM 45.6680 -73.3620 256° West 207 238 6,100 -1,320 Descending FlightAware
02:22PM 45.6620 -73.4000 257° West 211 243 5,400 -1,440 Descending FlightAware
02:23PM 45.6590 -73.4140 253° West 212 244 5,200 -1,320 Descending FlightAware
02:23PM 45.6520 -73.4530 256° West 213 245 4,600 -1,320 Descending FlightAware
02:23PM 45.6480 -73.4780 257° West 212 244 4,200 -1,140 Descending FlightAware
02:24PM 45.6420 -73.5120 256° West 209 241 3,800 -1,200 Descending FlightAware
02:24PM 45.6360 -73.5320 247° West 209 241 3,400 -1,320 Descending FlightAware
02:24PM 45.6290 -73.5440 230° Southwest 210 242 3,200 -600 Descending FlightAware
02:25PM 45.6090 -73.5700 222° Southwest 193 222 3,000 -300 Descending FlightAware
02:25PM 45.5990 -73.5840 224° Southwest 186 214 3,000 -300 Level FlightAware
02:25PM 45.5830 -73.6040 221° Southwest 168 193 2,800 -780 Descending FlightAware
02:26PM 45.5670 -73.6270 225° Southwest 164 189 2,300 -900 Descending FlightAware
02:26PM 45.5520 -73.6460 222° Southwest 157 181 2,000 -780 Descending FlightAware
02:27PM 45.5370 -73.6660 223° Southwest 145 167 1,600 -780 Descending FlightAware
02:27PM 45.5240 -73.6820 221° Southwest 144 166 1,300 -780 Descending FlightAware
02:28PM 45.5100 -73.7000 222° Southwest 133 153 900 -780 Descending FlightAware
02:28PM 45.4990 -73.7150 224° Southwest 137 158 600 -780 Descending FlightAware
02:28PM 45.4920 -73.7250 225° Southwest 143 165 400 -660 Descending FlightAware
02:29PM 45.4810 -73.7390 222° Southwest 138 159 200 -540 Descending FlightAware
02:29PM 45.4710 -73.7520 222° Southwest 54 62 -420 Descending FlightAware
02:30PM 45.4680 -73.7550 215° Southwest 19 22  Level FlightAware
02:30PM 45.4670 -73.7560 215° Southwest 18 21  Level FlightAware
02:30PM 45.4660 -73.7560 180° South 15 17  Level FlightAware
02:31PM 45.4650 -73.7570 215° Southwest 11 13  Level FlightAware
02:31PM 45.4630 -73.7570 180° South 13 15  Level FlightAware